sensor_id;sensor_type;location;lat;lon;timestamp;pressure;altitude;pressure_sealevel;temperature;humidity
43838;BME280;65998;46.256;7.534;2023-05-07T00:00:38;87031.97;;;19.36;62.32
43838;BME280;65998;46.256;7.534;2023-05-07T00:03:20;87022.16;;;19.37;62.21
43838;BME280;65998;46.256;7.534;2023-05-07T00:05:46;87027.91;;;19.33;62.18
43838;BME280;65998;46.256;7.534;2023-05-07T00:08:11;87017.53;;;19.32;62.29
43838;BME280;65998;46.256;7.534;2023-05-07T00:10:37;87023.19;;;19.30;62.32
43838;BME280;65998;46.256;7.534;2023-05-07T00:13:03;87028.75;;;19.30;61.99
43838;BME280;65998;46.256;7.534;2023-05-07T00:15:29;87036.53;;;19.27;62.25
43838;BME280;65998;46.256;7.534;2023-05-07T00:17:55;87026.13;;;19.26;62.32
43838;BME280;65998;46.256;7.534;2023-05-07T00:20:21;87025.38;;;19.27;62.36
43838;BME280;65998;46.256;7.534;2023-05-07T00:22:46;87026.06;;;19.28;62.34
43838;BME280;65998;46.256;7.534;2023-05-07T00:25:12;87023.25;;;19.28;62.16
43838;BME280;65998;46.256;7.534;2023-05-07T00:27:38;87023.84;;;19.30;61.99
43838;BME280;65998;46.256;7.534;2023-05-07T00:30:04;87011.34;;;19.29;62.05
43838;BME280;65998;46.256;7.534;2023-05-07T00:32:30;87015.50;;;19.30;61.98
43838;BME280;65998;46.256;7.534;2023-05-07T00:34:56;87006.38;;;19.32;61.66
43838;BME280;65998;46.256;7.534;2023-05-07T00:37:22;87000.22;;;19.29;61.70
43838;BME280;65998;46.256;7.534;2023-05-07T00:39:48;87000.97;;;19.28;61.86
43838;BME280;65998;46.256;7.534;2023-05-07T00:42:13;86989.91;;;19.26;61.88
43838;BME280;65998;46.256;7.534;2023-05-07T00:44:39;86994.81;;;19.25;61.75
43838;BME280;65998;46.256;7.534;2023-05-07T00:47:05;86993.28;;;19.28;61.80
43838;BME280;65998;46.256;7.534;2023-05-07T00:49:39;86999.22;;;19.37;61.69
43838;BME280;65998;46.256;7.534;2023-05-07T00:52:11;86998.44;;;19.38;61.35
43838;BME280;65998;46.256;7.534;2023-05-07T00:54:37;86997.94;;;19.34;61.41
43838;BME280;65998;46.256;7.534;2023-05-07T00:57:03;86996.66;;;19.31;61.43
43838;BME280;65998;46.256;7.534;2023-05-07T00:59:31;86998.09;;;19.30;61.37
43838;BME280;65998;46.256;7.534;2023-05-07T01:01:57;87001.81;;;19.24;61.49
43838;BME280;65998;46.256;7.534;2023-05-07T01:04:23;86998.44;;;19.22;61.58
43838;BME280;65998;46.256;7.534;2023-05-07T01:06:49;87008.75;;;19.25;61.61
43838;BME280;65998;46.256;7.534;2023-05-07T01:09:16;87007.56;;;19.20;61.58
43838;BME280;65998;46.256;7.534;2023-05-07T01:11:42;87004.69;;;19.22;61.54
43838;BME280;65998;46.256;7.534;2023-05-07T01:14:09;87012.38;;;19.22;61.46
43838;BME280;65998;46.256;7.534;2023-05-07T01:16:36;87016.50;;;19.23;61.47
43838;BME280;65998;46.256;7.534;2023-05-07T01:19:03;87004.69;;;19.22;61.40
43838;BME280;65998;46.256;7.534;2023-05-07T01:21:33;87009.34;;;19.28;61.31
43838;BME280;65998;46.256;7.534;2023-05-07T01:23:59;87016.50;;;19.23;61.36
43838;BME280;65998;46.256;7.534;2023-05-07T01:26:25;87008.22;;;19.21;61.34
43838;BME280;65998;46.256;7.534;2023-05-07T01:28:50;87001.91;;;19.22;61.38
43838;BME280;65998;46.256;7.534;2023-05-07T01:31:16;87001.81;;;19.24;61.06
43838;BME280;65998;46.256;7.534;2023-05-07T01:33:44;87000.38;;;19.25;61.06
43838;BME280;65998;46.256;7.534;2023-05-07T01:36:11;86996.41;;;19.20;61.54
43838;BME280;65998;46.256;7.534;2023-05-07T01:38:39;86997.75;;;19.21;61.37
43838;BME280;65998;46.256;7.534;2023-05-07T01:41:07;87002.75;;;19.19;61.10
43838;BME280;65998;46.256;7.534;2023-05-07T01:43:33;86995.81;;;19.18;61.19
43838;BME280;65998;46.256;7.534;2023-05-07T01:46:00;87000.56;;;19.21;61.09
43838;BME280;65998;46.256;7.534;2023-05-07T01:48:27;86998.53;;;19.20;61.21
43838;BME280;65998;46.256;7.534;2023-05-07T01:50:54;86988.13;;;19.18;61.14
43838;BME280;65998;46.256;7.534;2023-05-07T01:53:20;86994.47;;;19.17;61.18
43838;BME280;65998;46.256;7.534;2023-05-07T01:55:46;86995.91;;;19.16;61.19
43838;BME280;65998;46.256;7.534;2023-05-07T01:58:12;86990.31;;;19.16;61.08
43838;BME280;65998;46.256;7.534;2023-05-07T02:00:38;86988.97;;;19.14;60.99
43838;BME280;65998;46.256;7.534;2023-05-07T02:03:03;86991.09;;;19.14;60.86
43838;BME280;65998;46.256;7.534;2023-05-07T02:05:29;86988.31;;;19.14;60.96
43838;BME280;65998;46.256;7.534;2023-05-07T02:07:55;86993.88;;;19.14;61.01
43838;BME280;65998;46.256;7.534;2023-05-07T02:10:21;86988.31;;;19.14;60.83
43838;BME280;65998;46.256;7.534;2023-05-07T02:12:47;86989.66;;;19.15;60.85
43838;BME280;65998;46.256;7.534;2023-05-07T02:15:12;86993.94;;;19.12;60.81
43838;BME280;65998;46.256;7.534;2023-05-07T02:17:58;86993.78;;;19.16;60.81
43838;BME280;65998;46.256;7.534;2023-05-07T02:20:25;86990.50;;;19.11;60.61
43838;BME280;65998;46.256;7.534;2023-05-07T02:22:50;86989.16;;;19.10;60.78
43838;BME280;65998;46.256;7.534;2023-05-07T02:25:16;86983.31;;;19.17;60.56
43838;BME280;65998;46.256;7.534;2023-05-07T02:27:42;86990.56;;;19.09;60.50
43838;BME280;65998;46.256;7.534;2023-05-07T02:30:08;86987.19;;;19.07;60.60
43838;BME280;65998;46.256;7.534;2023-05-07T02:32:34;86985.84;;;19.06;60.64
43838;BME280;65998;46.256;7.534;2023-05-07T02:35:00;86987.13;;;19.09;60.40
43838;BME280;65998;46.256;7.534;2023-05-07T02:37:25;86996.31;;;19.05;60.37
43838;BME280;65998;46.256;7.534;2023-05-07T02:39:51;86992.09;;;19.06;60.42
43838;BME280;65998;46.256;7.534;2023-05-07T02:42:17;86986.44;;;19.08;60.18
43838;BME280;65998;46.256;7.534;2023-05-07T02:44:43;86987.19;;;19.07;60.08
43838;BME280;65998;46.256;7.534;2023-05-07T02:47:08;86977.41;;;19.08;60.01
43838;BME280;65998;46.256;7.534;2023-05-07T02:49:34;86982.22;;;19.09;59.90
43838;BME280;65998;46.256;7.534;2023-05-07T02:52:00;86974.53;;;19.10;59.67
43838;BME280;65998;46.256;7.534;2023-05-07T02:54:26;86977.25;;;19.12;59.67
43838;BME280;65998;46.256;7.534;2023-05-07T02:56:52;86980.63;;;19.14;59.49
43838;BME280;65998;46.256;7.534;2023-05-07T02:59:17;86974.28;;;19.16;59.31
43838;BME280;65998;46.256;7.534;2023-05-07T03:01:43;86972.94;;;19.15;59.14
43838;BME280;65998;46.256;7.534;2023-05-07T03:04:10;86974.97;;;19.17;58.99
43838;BME280;65998;46.256;7.534;2023-05-07T03:06:35;86971.50;;;19.16;58.99
43838;BME280;65998;46.256;7.534;2023-05-07T03:09:02;86965.94;;;19.16;58.86
43838;BME280;65998;46.256;7.534;2023-05-07T03:11:28;86969.56;;;19.12;58.65
43838;BME280;65998;46.256;7.534;2023-05-07T03:13:54;86964.06;;;19.10;58.61
43838;BME280;65998;46.256;7.534;2023-05-07T03:16:19;86974.53;;;19.10;58.36
43838;BME280;65998;46.256;7.534;2023-05-07T03:18:45;86971.06;;;19.09;58.41
43838;BME280;65998;46.256;7.534;2023-05-07T03:21:11;86967.69;;;19.07;58.00
43838;BME280;65998;46.256;7.534;2023-05-07T03:23:37;86975.28;;;19.08;57.79
43838;BME280;65998;46.256;7.534;2023-05-07T03:26:03;86967.69;;;19.07;57.87
43838;BME280;65998;46.256;7.534;2023-05-07T03:28:29;86969.13;;;19.06;57.66
43838;BME280;65998;46.256;7.534;2023-05-07T03:30:54;86963.56;;;19.06;57.60
43838;BME280;65998;46.256;7.534;2023-05-07T03:33:20;86963.06;;;19.01;57.45
43838;BME280;65998;46.256;7.534;2023-05-07T03:35:46;86972.75;;;19.02;57.35
43838;BME280;65998;46.256;7.534;2023-05-07T03:38:12;86972.94;;;18.98;57.39
43838;BME280;65998;46.256;7.534;2023-05-07T03:40:38;86965.25;;;18.99;57.35
43838;BME280;65998;46.256;7.534;2023-05-07T03:43:04;86972.75;;;19.02;57.19
43838;BME280;65998;46.256;7.534;2023-05-07T03:45:29;86972.84;;;19.00;57.17
43838;BME280;65998;46.256;7.534;2023-05-07T03:47:55;86972.25;;;18.98;57.19
43838;BME280;65998;46.256;7.534;2023-05-07T03:50:21;86972.94;;;18.98;57.12
43838;BME280;65998;46.256;7.534;2023-05-07T03:52:47;86980.69;;;18.96;57.22
43838;BME280;65998;46.256;7.534;2023-05-07T03:55:13;86972.31;;;18.96;57.06
43838;BME280;65998;46.256;7.534;2023-05-07T03:57:38;86976.22;;;19.03;56.80
43838;BME280;65998;46.256;7.534;2023-05-07T04:00:05;86973.34;;;19.05;56.75
43838;BME280;65998;46.256;7.534;2023-05-07T04:02:31;86977.50;;;19.06;56.54
43838;BME280;65998;46.256;7.534;2023-05-07T04:04:58;86983.72;;;19.06;56.53
43838;BME280;65998;46.256;7.534;2023-05-07T04:07:24;86984.41;;;19.07;56.38
43838;BME280;65998;46.256;7.534;2023-05-07T04:09:49;86979.59;;;19.05;56.51
43838;BME280;65998;46.256;7.534;2023-05-07T04:12:15;86985.16;;;19.05;56.50
43838;BME280;65998;46.256;7.534;2023-05-07T04:14:41;86982.38;;;19.05;56.40
43838;BME280;65998;46.256;7.534;2023-05-07T04:17:07;86986.00;;;19.02;56.29
43838;BME280;65998;46.256;7.534;2023-05-07T04:19:33;86996.31;;;19.05;56.23
43838;BME280;65998;46.256;7.534;2023-05-07T04:21:59;87000.53;;;19.04;56.22
43838;BME280;65998;46.256;7.534;2023-05-07T04:24:25;86991.56;;;19.02;56.03
43838;BME280;65998;46.256;7.534;2023-05-07T04:26:51;86996.56;;;18.99;56.17
43838;BME280;65998;46.256;7.534;2023-05-07T04:29:16;86993.84;;;18.97;56.32
43838;BME280;65998;46.256;7.534;2023-05-07T04:31:42;86995.13;;;19.00;56.03
43838;BME280;65998;46.256;7.534;2023-05-07T04:34:08;86987.44;;;19.01;55.88
43838;BME280;65998;46.256;7.534;2023-05-07T04:36:34;86989.13;;;18.94;56.07
43838;BME280;65998;46.256;7.534;2023-05-07T04:38:59;86993.25;;;18.95;56.15
43838;BME280;65998;46.256;7.534;2023-05-07T04:41:25;86992.50;;;18.96;55.97
43838;BME280;65998;46.256;7.534;2023-05-07T04:43:51;86989.88;;;18.92;56.10
43838;BME280;65998;46.256;7.534;2023-05-07T04:46:17;86989.13;;;18.94;55.99
43838;BME280;65998;46.256;7.534;2023-05-07T04:48:43;86991.47;;;18.87;56.26
43838;BME280;65998;46.256;7.534;2023-05-07T04:51:09;86987.41;;;18.84;56.21
43838;BME280;65998;46.256;7.534;2023-05-07T04:53:34;86990.03;;;18.88;55.98
43838;BME280;65998;46.256;7.534;2023-05-07T04:56:00;86991.03;;;18.80;56.13
43838;BME280;65998;46.256;7.534;2023-05-07T04:58:26;86998.03;;;18.79;56.04
43838;BME280;65998;46.256;7.534;2023-05-07T05:00:52;87003.75;;;18.75;56.09
43838;BME280;65998;46.256;7.534;2023-05-07T05:03:18;86996.00;;;18.78;55.94
43838;BME280;65998;46.256;7.534;2023-05-07T05:05:44;87002.75;;;18.83;55.77
43838;BME280;65998;46.256;7.534;2023-05-07T05:08:10;87006.81;;;18.86;55.61
43838;BME280;65998;46.256;7.534;2023-05-07T05:10:36;87013.06;;;18.87;55.59
43838;BME280;65998;46.256;7.534;2023-05-07T05:13:01;87020.00;;;18.88;55.55
43838;BME280;65998;46.256;7.534;2023-05-07T05:15:27;87033.31;;;18.85;55.68
43838;BME280;65998;46.256;7.534;2023-05-07T05:17:53;87032.72;;;18.83;55.65
43838;BME280;65998;46.256;7.534;2023-05-07T05:20:19;87030.69;;;18.81;55.75
43838;BME280;65998;46.256;7.534;2023-05-07T05:22:44;87028.72;;;18.77;55.60
43838;BME280;65998;46.256;7.534;2023-05-07T05:25:10;87038.44;;;18.78;55.52
43838;BME280;65998;46.256;7.534;2023-05-07T05:27:36;87037.59;;;18.82;55.35
43838;BME280;65998;46.256;7.534;2023-05-07T05:30:03;87043.69;;;18.87;55.32
43838;BME280;65998;46.256;7.534;2023-05-07T05:32:29;87043.84;;;18.83;55.21
43838;BME280;65998;46.256;7.534;2023-05-07T05:34:55;87050.25;;;18.79;55.22
43838;BME280;65998;46.256;7.534;2023-05-07T05:37:21;87054.38;;;18.80;55.11
43838;BME280;65998;46.256;7.534;2023-05-07T05:39:46;87059.88;;;18.82;54.99
43838;BME280;65998;46.256;7.534;2023-05-07T05:42:12;87055.81;;;18.79;54.99
43838;BME280;65998;46.256;7.534;2023-05-07T05:44:38;87059.28;;;18.79;54.95
43838;BME280;65998;46.256;7.534;2023-05-07T05:47:04;87060.72;;;18.78;54.88
43838;BME280;65998;46.256;7.534;2023-05-07T05:49:30;87059.44;;;18.75;55.05
43838;BME280;65998;46.256;7.534;2023-05-07T05:51:55;87057.41;;;18.74;55.04
43838;BME280;65998;46.256;7.534;2023-05-07T05:54:22;87064.41;;;18.73;55.01
43838;BME280;65998;46.256;7.534;2023-05-07T05:56:47;87071.44;;;18.70;55.14
43838;BME280;65998;46.256;7.534;2023-05-07T05:59:14;87070.09;;;18.69;55.13
43838;BME280;65998;46.256;7.534;2023-05-07T06:01:40;87074.97;;;18.68;54.92
43838;BME280;65998;46.256;7.534;2023-05-07T06:04:06;87070.63;;;18.73;54.91
43838;BME280;65998;46.256;7.534;2023-05-07T06:06:31;87071.31;;;18.74;54.90
43838;BME280;65998;46.256;7.534;2023-05-07T06:08:57;87076.94;;;18.72;54.99
43838;BME280;65998;46.256;7.534;2023-05-07T06:11:23;87079.03;;;18.71;54.94
43838;BME280;65998;46.256;7.534;2023-05-07T06:13:49;87083.94;;;18.71;55.01
43838;BME280;65998;46.256;7.534;2023-05-07T06:16:15;87084.75;;;18.67;55.02
43838;BME280;65998;46.256;7.534;2023-05-07T06:18:40;87084.09;;;18.67;54.95
43838;BME280;65998;46.256;7.534;2023-05-07T06:21:06;87084.16;;;18.65;55.09
43838;BME280;65998;46.256;7.534;2023-05-07T06:23:32;87083.47;;;18.64;55.27
43838;BME280;65998;46.256;7.534;2023-05-07T06:25:58;87085.59;;;18.64;55.31
43838;BME280;65998;46.256;7.534;2023-05-07T06:28:24;87082.81;;;18.64;55.29
43838;BME280;65998;46.256;7.534;2023-05-07T06:30:49;87087.03;;;18.63;55.41
43838;BME280;65998;46.256;7.534;2023-05-07T06:33:15;87087.03;;;18.63;55.50
43838;BME280;65998;46.256;7.534;2023-05-07T06:35:41;87090.56;;;18.61;55.41
43838;BME280;65998;46.256;7.534;2023-05-07T06:38:07;87088.28;;;18.66;55.27
43838;BME280;65998;46.256;7.534;2023-05-07T06:40:33;87089.66;;;18.67;55.36
43838;BME280;65998;46.256;7.534;2023-05-07T06:42:59;87090.25;;;18.69;55.13
43838;BME280;65998;46.256;7.534;2023-05-07T06:45:24;87091.84;;;18.64;55.30
43838;BME280;65998;46.256;7.534;2023-05-07T06:47:50;87085.66;;;18.62;55.36
43838;BME280;65998;46.256;7.534;2023-05-07T06:50:16;87083.56;;;18.62;55.17
43838;BME280;65998;46.256;7.534;2023-05-07T06:52:42;87080.09;;;18.62;55.20
43838;BME280;65998;46.256;7.534;2023-05-07T06:55:09;87085.50;;;18.66;55.09
43838;BME280;65998;46.256;7.534;2023-05-07T06:57:35;87079.69;;;18.53;55.25
43838;BME280;65998;46.256;7.534;2023-05-07T07:00:00;87076.16;;;18.55;55.18
43838;BME280;65998;46.256;7.534;2023-05-07T07:02:26;87081.72;;;18.55;55.26
43838;BME280;65998;46.256;7.534;2023-05-07T07:04:52;87078.28;;;18.54;55.21
43838;BME280;65998;46.256;7.534;2023-05-07T07:07:18;87076.84;;;18.55;55.12
43838;BME280;65998;46.256;7.534;2023-05-07T07:09:43;87077.53;;;18.56;55.08
43838;BME280;65998;46.256;7.534;2023-05-07T07:12:09;87070.59;;;18.55;55.10
43838;BME280;65998;46.256;7.534;2023-05-07T07:14:35;87058.19;;;18.51;55.11
43838;BME280;65998;46.256;7.534;2023-05-07T07:17:01;87059.63;;;18.50;55.13
43838;BME280;65998;46.256;7.534;2023-05-07T07:19:27;87055.41;;;18.51;55.02
43838;BME280;65998;46.256;7.534;2023-05-07T07:21:53;87054.66;;;18.53;54.99
43838;BME280;65998;46.256;7.534;2023-05-07T07:24:18;87053.22;;;18.54;54.91
43838;BME280;65998;46.256;7.534;2023-05-07T07:26:45;87042.63;;;18.59;54.80
43838;BME280;65998;46.256;7.534;2023-05-07T07:29:10;87049.09;;;18.53;54.89
43838;BME280;65998;46.256;7.534;2023-05-07T07:31:36;87049.09;;;18.53;54.79
43838;BME280;65998;46.256;7.534;2023-05-07T07:34:02;87056.09;;;18.52;54.98
43838;BME280;65998;46.256;7.534;2023-05-07T07:36:28;87051.72;;;18.57;54.77
43838;BME280;65998;46.256;7.534;2023-05-07T07:38:54;87045.94;;;18.63;54.68
43838;BME280;65998;46.256;7.534;2023-05-07T07:41:20;87041.13;;;18.62;54.66
43838;BME280;65998;46.256;7.534;2023-05-07T07:43:45;87045.47;;;18.57;54.67
43838;BME280;65998;46.256;7.534;2023-05-07T07:46:12;87047.66;;;18.54;54.76
43838;BME280;65998;46.256;7.534;2023-05-07T07:48:37;87036.59;;;18.52;54.62
43838;BME280;65998;46.256;7.534;2023-05-07T07:51:04;87035.19;;;18.53;54.49
43838;BME280;65998;46.256;7.534;2023-05-07T07:53:29;87031.63;;;18.55;54.44
43838;BME280;65998;46.256;7.534;2023-05-07T07:55:56;87042.78;;;18.55;54.43
43838;BME280;65998;46.256;7.534;2023-05-07T07:58:21;87038.63;;;18.54;54.51
43838;BME280;65998;46.256;7.534;2023-05-07T08:00:47;87034.41;;;18.55;54.50
43838;BME280;65998;46.256;7.534;2023-05-07T08:03:13;87041.41;;;18.54;54.39
43838;BME280;65998;46.256;7.534;2023-05-07T08:05:39;87038.63;;;18.54;54.28
43838;BME280;65998;46.256;7.534;2023-05-07T08:08:05;87040.00;;;18.55;54.28
43838;BME280;65998;46.256;7.534;2023-05-07T08:10:32;87021.88;;;18.56;54.12
43838;BME280;65998;46.256;7.534;2023-05-07T08:12:57;87030.97;;;18.54;54.05
43838;BME280;65998;46.256;7.534;2023-05-07T08:15:23;87031.56;;;18.57;54.13
43838;BME280;65998;46.256;7.534;2023-05-07T08:17:49;87025.41;;;18.54;54.23
43838;BME280;65998;46.256;7.534;2023-05-07T08:20:15;87025.31;;;18.56;54.13
43838;BME280;65998;46.256;7.534;2023-05-07T08:22:41;87016.75;;;18.62;53.99
43838;BME280;65998;46.256;7.534;2023-05-07T08:25:07;87024.38;;;18.64;53.98
43838;BME280;65998;46.256;7.534;2023-05-07T08:27:33;87016.81;;;18.60;54.03
43838;BME280;65998;46.256;7.534;2023-05-07T08:29:59;87017.50;;;18.61;53.96
43838;BME280;65998;46.256;7.534;2023-05-07T08:32:24;87016.81;;;18.60;53.93
43838;BME280;65998;46.256;7.534;2023-05-07T08:34:50;87019.53;;;18.62;53.91
43838;BME280;65998;46.256;7.534;2023-05-07T08:37:16;87025.72;;;18.65;53.79
43838;BME280;65998;46.256;7.534;2023-05-07T08:39:42;87018.13;;;18.63;53.72
43838;BME280;65998;46.256;7.534;2023-05-07T08:42:09;87022.09;;;18.68;53.54
43838;BME280;65998;46.256;7.534;2023-05-07T08:44:38;87022.09;;;18.68;53.45
43838;BME280;65998;46.256;7.534;2023-05-07T08:47:06;87024.88;;;18.68;53.45
43838;BME280;65998;46.256;7.534;2023-05-07T08:49:33;87026.25;;;18.69;53.38
43838;BME280;65998;46.256;7.534;2023-05-07T08:52:00;87022.03;;;18.70;53.30
43838;BME280;65998;46.256;7.534;2023-05-07T08:54:27;87023.38;;;18.71;53.31
43838;BME280;65998;46.256;7.534;2023-05-07T08:56:53;87022.19;;;18.66;53.19
43838;BME280;65998;46.256;7.534;2023-05-07T08:59:19;87017.28;;;18.67;53.11
43838;BME280;65998;46.256;7.534;2023-05-07T09:01:45;87016.47;;;18.70;52.98
43838;BME280;65998;46.256;7.534;2023-05-07T09:04:11;87022.66;;;18.73;52.95
43838;BME280;65998;46.256;7.534;2023-05-07T09:06:37;87006.69;;;18.71;52.92
43838;BME280;65998;46.256;7.534;2023-05-07T09:09:03;87010.13;;;18.72;52.83
43838;BME280;65998;46.256;7.534;2023-05-07T09:11:30;87004.44;;;18.76;52.87
43838;BME280;65998;46.256;7.534;2023-05-07T09:13:56;87017.59;;;18.77;52.73
43838;BME280;65998;46.256;7.534;2023-05-07T09:16:23;87012.03;;;18.77;52.56
43838;BME280;65998;46.256;7.534;2023-05-07T09:18:53;87011.28;;;18.79;52.68
43838;BME280;65998;46.256;7.534;2023-05-07T09:21:20;87007.72;;;18.80;52.73
43838;BME280;65998;46.256;7.534;2023-05-07T09:23:49;87018.19;;;18.80;52.60
43838;BME280;65998;46.256;7.534;2023-05-07T09:26:15;87021.72;;;18.78;52.64
43838;BME280;65998;46.256;7.534;2023-05-07T09:28:41;87014.06;;;18.79;52.63
43838;BME280;65998;46.256;7.534;2023-05-07T09:31:08;87016.31;;;18.74;52.68
43838;BME280;65998;46.256;7.534;2023-05-07T09:33:35;87013.53;;;18.74;52.77
43838;BME280;65998;46.256;7.534;2023-05-07T09:36:05;87010.59;;;18.78;52.54
43838;BME280;65998;46.256;7.534;2023-05-07T09:38:35;87006.38;;;18.79;52.46
43838;BME280;65998;46.256;7.534;2023-05-07T09:41:11;86999.47;;;18.78;52.52
43838;BME280;65998;46.256;7.534;2023-05-07T09:43:39;86992.03;;;18.73;52.59
43838;BME280;65998;46.256;7.534;2023-05-07T09:46:12;86990.34;;;18.80;52.35
43838;BME280;65998;46.256;7.534;2023-05-07T09:48:40;86994.56;;;18.79;52.44
43838;BME280;65998;46.256;7.534;2023-05-07T09:51:30;86995.75;;;18.84;52.36
43838;BME280;65998;46.256;7.534;2023-05-07T09:53:57;86997.28;;;18.81;52.35
43838;BME280;65998;46.256;7.534;2023-05-07T09:56:24;87002.09;;;18.83;52.34
43838;BME280;65998;46.256;7.534;2023-05-07T09:58:52;86997.19;;;18.83;52.27
43838;BME280;65998;46.256;7.534;2023-05-07T10:01:19;86994.56;;;18.79;52.34
43838;BME280;65998;46.256;7.534;2023-05-07T10:03:46;86993.22;;;18.78;52.34
43838;BME280;65998;46.256;7.534;2023-05-07T10:06:13;86991.78;;;18.79;52.34
43838;BME280;65998;46.256;7.534;2023-05-07T10:08:40;86993.91;;;18.78;52.31
43838;BME280;65998;46.256;7.534;2023-05-07T10:11:09;86995.25;;;18.79;52.19
43838;BME280;65998;46.256;7.534;2023-05-07T10:13:36;86995.31;;;18.77;52.31
43838;BME280;65998;46.256;7.534;2023-05-07T10:16:04;86991.78;;;18.79;52.39
43838;BME280;65998;46.256;7.534;2023-05-07T10:18:31;86988.31;;;18.78;52.23
43838;BME280;65998;46.256;7.534;2023-05-07T10:23:29;86989.84;;;18.75;52.32
43838;BME280;65998;46.256;7.534;2023-05-07T10:25:57;86987.81;;;18.74;52.45
43838;BME280;65998;46.256;7.534;2023-05-07T10:28:24;86978.03;;;18.75;52.39
43838;BME280;65998;46.256;7.534;2023-05-07T10:31:07;86977.88;;;18.79;52.33
43838;BME280;65998;46.256;7.534;2023-05-07T10:33:37;86983.34;;;18.81;52.24
43838;BME280;65998;46.256;7.534;2023-05-07T10:36:05;86974.94;;;18.83;52.12
43838;BME280;65998;46.256;7.534;2023-05-07T10:38:32;86978.47;;;18.81;52.12
43838;BME280;65998;46.256;7.534;2023-05-07T10:40:58;86981.25;;;18.81;52.21
43838;BME280;65998;46.256;7.534;2023-05-07T10:43:24;86981.25;;;18.81;52.34
43838;BME280;65998;46.256;7.534;2023-05-07T10:46:09;86978.31;;;18.86;52.00
43838;BME280;65998;46.256;7.534;2023-05-07T10:51:27;86973.50;;;18.84;52.23
43838;BME280;65998;46.256;7.534;2023-05-07T10:56:38;86967.94;;;18.84;52.12
43838;BME280;65998;46.256;7.534;2023-05-07T11:01:52;86969.19;;;18.87;52.12
43838;BME280;65998;46.256;7.534;2023-05-07T11:04:19;86968.75;;;18.80;52.15
43838;BME280;65998;46.256;7.534;2023-05-07T11:15:05;86964.03;;;18.77;52.23
43838;BME280;65998;46.256;7.534;2023-05-07T11:17:31;86962.00;;;18.75;52.33
43838;BME280;65998;46.256;7.534;2023-05-07T11:19:58;86960.03;;;18.72;52.41
43838;BME280;65998;46.256;7.534;2023-05-07T11:25:02;86956.34;;;18.77;52.23
43838;BME280;65998;46.256;7.534;2023-05-07T11:27:29;86959.31;;;18.73;52.36
43838;BME280;65998;46.256;7.534;2023-05-07T11:29:56;86952.34;;;18.72;52.30
43838;BME280;65998;46.256;7.534;2023-05-07T11:32:26;86953.66;;;18.75;52.26
43838;BME280;65998;46.256;7.534;2023-05-07T11:34:56;86950.28;;;18.73;52.34
43838;BME280;65998;46.256;7.534;2023-05-07T11:37:23;86948.84;;;18.74;52.41
43838;BME280;65998;46.256;7.534;2023-05-07T11:39:50;86939.13;;;18.73;52.36
43838;BME280;65998;46.256;7.534;2023-05-07T11:42:38;86947.53;;;18.71;52.32
43838;BME280;65998;46.256;7.534;2023-05-07T11:45:06;86940.72;;;18.68;52.62
43838;BME280;65998;46.256;7.534;2023-05-07T11:47:32;86942.22;;;18.65;52.57
43838;BME280;65998;46.256;7.534;2023-05-07T11:50:05;86940.03;;;18.67;52.64
43838;BME280;65998;46.256;7.534;2023-05-07T11:52:32;86943.72;;;18.62;52.67
43838;BME280;65998;46.256;7.534;2023-05-07T11:54:59;86936.06;;;18.62;52.59
43838;BME280;65998;46.256;7.534;2023-05-07T11:57:26;86942.91;;;18.65;52.63
43838;BME280;65998;46.256;7.534;2023-05-07T11:59:56;86932.44;;;18.66;52.57
43838;BME280;65998;46.256;7.534;2023-05-07T12:02:22;86936.19;;;18.58;52.68
43838;BME280;65998;46.256;7.534;2023-05-07T12:04:48;86937.53;;;18.59;52.61
43838;BME280;65998;46.256;7.534;2023-05-07T12:07:16;86941.47;;;18.66;52.53
43838;BME280;65998;46.256;7.534;2023-05-07T12:09:43;86943.72;;;18.62;52.59
43838;BME280;65998;46.256;7.534;2023-05-07T12:12:09;86939.72;;;18.57;52.72
43838;BME280;65998;46.256;7.534;2023-05-07T12:14:39;86931.09;;;18.65;52.70
43838;BME280;65998;46.256;7.534;2023-05-07T12:17:07;86933.28;;;18.62;52.72
43838;BME280;65998;46.256;7.534;2023-05-07T12:19:34;86940.94;;;18.62;52.67
43838;BME280;65998;46.256;7.534;2023-05-07T12:22:02;86931.16;;;18.63;52.73
43838;BME280;65998;46.256;7.534;2023-05-07T12:24:29;86941.75;;;18.58;52.70
43838;BME280;65998;46.256;7.534;2023-05-07T12:26:54;86936.88;;;18.59;52.77
43838;BME280;65998;46.256;7.534;2023-05-07T12:29:23;86936.06;;;18.62;52.68
43838;BME280;65998;46.256;7.534;2023-05-07T12:31:50;86939.66;;;18.59;52.79
43838;BME280;65998;46.256;7.534;2023-05-07T12:34:16;86935.16;;;18.68;52.49
43838;BME280;65998;46.256;7.534;2023-05-07T12:36:41;86933.03;;;18.68;52.68
43838;BME280;65998;46.256;7.534;2023-05-07T12:39:08;86933.56;;;18.73;52.71
43838;BME280;65998;46.256;7.534;2023-05-07T12:41:57;86938.13;;;18.80;52.45
43838;BME280;65998;46.256;7.534;2023-05-07T12:44:32;86936.19;;;18.77;52.55
43838;BME280;65998;46.256;7.534;2023-05-07T12:47:01;86939.06;;;18.75;52.72
43838;BME280;65998;46.256;7.534;2023-05-07T12:49:27;86933.50;;;18.75;52.60
43838;BME280;65998;46.256;7.534;2023-05-07T12:51:53;86938.31;;;18.76;52.50
43838;BME280;65998;46.256;7.534;2023-05-07T12:54:33;86931.81;;;18.82;52.46
43838;BME280;65998;46.256;7.534;2023-05-07T12:57:06;86932.41;;;18.85;52.39
43838;BME280;65998;46.256;7.534;2023-05-07T12:59:38;86932.41;;;18.85;52.43
43838;BME280;65998;46.256;7.534;2023-05-07T13:02:04;86940.84;;;18.83;52.55
43838;BME280;65998;46.256;7.534;2023-05-07T13:04:30;86931.91;;;18.80;52.48
43838;BME280;65998;46.256;7.534;2023-05-07T13:06:56;86931.13;;;18.81;52.55
43838;BME280;65998;46.256;7.534;2023-05-07T13:09:22;86924.91;;;18.81;52.47
43838;BME280;65998;46.256;7.534;2023-05-07T13:11:48;86925.66;;;18.79;52.45
43838;BME280;65998;46.256;7.534;2023-05-07T13:14:14;86920.59;;;18.84;52.46
43838;BME280;65998;46.256;7.534;2023-05-07T13:16:40;86924.22;;;18.80;52.41
43838;BME280;65998;46.256;7.534;2023-05-07T13:19:06;86917.91;;;18.82;52.31